createdAt,value
2022-11-04T00:02:12.480Z,2.30
2022-11-04T00:05:01.312Z,2.13
2022-11-04T00:07:48.754Z,2.33
2022-11-04T00:10:17.512Z,2.10
2022-11-04T00:12:44.840Z,2.50
2022-11-04T00:15:30.347Z,2.40
2022-11-04T00:17:59.780Z,2.30
2022-11-04T00:20:45.349Z,2.47
2022-11-04T00:23:32.208Z,2.60
2022-11-04T00:26:17.993Z,2.80
2022-11-04T00:28:46.482Z,2.30
2022-11-04T00:31:32.008Z,2.80
2022-11-04T00:34:00.677Z,2.57
2022-11-04T00:36:29.035Z,3.00
2022-11-04T00:38:59.312Z,2.33
2022-11-04T00:41:28.369Z,2.63
2022-11-04T00:43:58.596Z,2.73
2022-11-04T00:46:28.112Z,2.43
2022-11-04T00:48:56.792Z,2.37
2022-11-04T00:51:25.579Z,2.40
2022-11-04T00:53:54.409Z,2.33
2022-11-04T00:56:24.308Z,2.67
2022-11-04T00:58:52.659Z,2.27
2022-11-04T01:01:21.511Z,2.73
2022-11-04T01:03:51.355Z,2.77
2022-11-04T01:06:20.966Z,2.60
2022-11-04T01:08:50.241Z,2.47
2022-11-04T01:11:18.824Z,2.50
2022-11-04T01:13:51.931Z,2.83
2022-11-04T01:16:20.538Z,2.53
2022-11-04T01:18:49.494Z,2.77
2022-11-04T01:21:19.124Z,2.40
2022-11-04T01:23:48.267Z,2.67
2022-11-04T01:26:18.753Z,2.47
2022-11-04T01:28:49.171Z,3.00
2022-11-04T01:31:21.045Z,2.30
2022-11-04T01:33:50.828Z,2.83
2022-11-04T01:36:19.934Z,2.77
2022-11-04T01:38:48.681Z,2.57
2022-11-04T01:41:19.962Z,2.70
2022-11-04T01:43:52.880Z,2.63
2022-11-04T01:46:32.886Z,2.50
2022-11-04T01:49:05.712Z,2.20
2022-11-04T01:51:37.917Z,2.90
2022-11-04T01:54:09.612Z,2.53
2022-11-04T01:56:39.278Z,2.13
2022-11-04T01:59:13.845Z,2.33
2022-11-04T02:01:43.114Z,2.70
2022-11-04T02:04:28.196Z,2.67
2022-11-04T02:06:59.195Z,2.60
2022-11-04T02:09:29.715Z,2.20
2022-11-04T02:12:16.553Z,2.30
2022-11-04T02:14:47.834Z,2.10
2022-11-04T02:17:30.382Z,2.20
2022-11-04T02:20:19.726Z,2.30
2022-11-04T02:23:23.784Z,2.30
2022-11-04T02:26:42.999Z,2.60
2022-11-04T02:29:26.175Z,2.23
2022-11-04T02:32:03.147Z,2.20
2022-11-04T02:34:39.901Z,2.40
2022-11-04T02:37:15.174Z,2.40
2022-11-04T02:39:54.320Z,2.33
2022-11-04T02:42:30.055Z,2.03
2022-11-04T02:45:13.246Z,2.17
2022-11-04T02:47:46.559Z,2.33
2022-11-04T02:50:22.239Z,2.20
2022-11-04T02:52:58.620Z,2.20
2022-11-04T02:55:31.085Z,1.80
2022-11-04T02:58:03.490Z,2.00
2022-11-04T03:00:34.583Z,2.27
2022-11-04T03:03:09.347Z,2.27
2022-11-04T03:05:41.520Z,2.20
2022-11-04T03:08:15.775Z,2.20
2022-11-04T03:10:46.455Z,1.93
2022-11-04T03:13:17.982Z,1.90
2022-11-04T03:15:52.872Z,2.87
2022-11-04T03:18:29.378Z,2.20
2022-11-04T03:21:02.900Z,1.90
2022-11-04T03:23:31.766Z,1.90
2022-11-04T03:26:08.500Z,2.57
2022-11-04T03:28:43.598Z,1.83
2022-11-04T03:31:20.711Z,2.33
2022-11-04T03:36:33.134Z,2.00
2022-11-04T03:39:01.463Z,2.07
2022-11-04T03:41:36.971Z,2.07
2022-11-04T03:44:05.495Z,2.10
2022-11-04T03:46:35.665Z,1.93
2022-11-04T03:49:05.268Z,2.00
2022-11-04T03:51:33.876Z,1.97
2022-11-04T03:54:02.686Z,2.10
2022-11-04T03:56:47.996Z,1.83
2022-11-04T03:59:32.437Z,1.70
2022-11-04T04:02:10.063Z,1.90
2022-11-04T04:04:42.069Z,1.77
2022-11-04T04:07:17.945Z,2.03
2022-11-04T04:09:52.157Z,2.00
2022-11-04T04:12:28.120Z,1.90
2022-11-04T04:15:01.771Z,2.10
2022-11-04T04:17:38.275Z,2.13
2022-11-04T04:20:13.126Z,1.87
2022-11-04T04:22:44.874Z,2.40
2022-11-04T04:25:33.346Z,1.90
2022-11-04T04:28:02.811Z,1.70
2022-11-04T04:30:31.992Z,1.77
2022-11-04T04:33:06.975Z,1.77
2022-11-04T04:35:44.393Z,2.17
2022-11-04T04:38:38.759Z,1.90
2022-11-04T04:41:29.502Z,1.80
2022-11-04T04:44:16.465Z,1.87
2022-11-04T04:46:46.273Z,2.10
2022-11-04T04:49:16.092Z,2.00
2022-11-04T04:51:46.798Z,2.17
2022-11-04T04:54:15.586Z,2.07
2022-11-04T04:56:43.817Z,2.43
2022-11-04T04:59:12.173Z,1.93
2022-11-04T05:01:40.565Z,2.10
2022-11-04T05:04:08.848Z,2.53
2022-11-04T05:06:38.482Z,2.03
2022-11-04T05:09:06.891Z,2.17
2022-11-04T05:11:35.201Z,1.70
2022-11-04T05:14:03.484Z,2.10
2022-11-04T05:16:33.477Z,2.50
2022-11-04T05:19:04.937Z,2.17
2022-11-04T05:21:48.100Z,2.20
2022-11-04T05:24:17.924Z,2.07
2022-11-04T05:26:46.243Z,2.17
2022-11-04T05:31:43.677Z,2.17
2022-11-04T05:34:13.024Z,1.93
2022-11-04T05:36:41.731Z,2.30
2022-11-04T05:39:13.739Z,2.00
2022-11-04T05:41:43.452Z,1.70
2022-11-04T05:44:12.583Z,2.20
2022-11-04T05:46:40.858Z,2.30
2022-11-04T05:49:11.316Z,2.40
2022-11-04T05:51:39.813Z,2.30
2022-11-04T05:54:09.392Z,2.20
2022-11-04T05:56:37.773Z,2.30
2022-11-04T05:59:07.772Z,2.07
2022-11-04T06:01:38.021Z,2.23
2022-11-04T06:04:07.488Z,2.20
2022-11-04T06:06:37.071Z,2.00
2022-11-04T06:09:05.635Z,1.90
2022-11-04T06:11:35.581Z,1.80
2022-11-04T06:14:03.864Z,1.90
2022-11-04T06:16:33.745Z,1.90
2022-11-04T06:19:06.061Z,2.10
2022-11-04T06:21:37.995Z,1.80
2022-11-04T06:24:18.228Z,1.40
2022-11-04T22:30:49.352Z,5.33
2022-11-04T22:33:18.229Z,9.93
2022-11-04T22:35:47.268Z,37.20
2022-11-04T22:38:15.792Z,22.03
2022-11-04T22:40:44.264Z,13.20
2022-11-04T22:43:13.884Z,11.87
2022-11-04T22:45:42.686Z,9.53
2022-11-04T22:48:12.926Z,8.70
2022-11-04T22:50:41.632Z,8.40
2022-11-04T22:53:10.382Z,7.07
2022-11-04T22:55:39.541Z,5.93
2022-11-04T22:58:08.096Z,5.63
2022-11-04T23:00:36.487Z,5.40
2022-11-04T23:03:04.973Z,5.53
2022-11-04T23:05:34.977Z,5.20
2022-11-04T23:08:03.327Z,5.30
2022-11-04T23:10:50.044Z,5.83
2022-11-04T23:13:35.511Z,6.90
2022-11-04T23:16:21.652Z,7.00
2022-11-04T23:18:52.180Z,7.43
2022-11-04T23:21:40.541Z,8.40
2022-11-04T23:24:27.321Z,7.10
2022-11-04T23:26:57.316Z,6.10
2022-11-04T23:29:42.718Z,6.90
2022-11-04T23:32:11.158Z,6.47
2022-11-04T23:34:57.277Z,6.80
2022-11-04T23:37:27.192Z,7.43
2022-11-04T23:39:55.572Z,6.60
2022-11-04T23:42:23.016Z,6.60
2022-11-04T23:45:10.715Z,6.63
2022-11-04T23:47:58.691Z,7.80
2022-11-04T23:50:46.664Z,8.67
2022-11-04T23:53:38.353Z,7.77
2022-11-04T23:56:28.121Z,7.60
2022-11-04T23:59:13.781Z,6.70
